Аэропорт: Челябинск. Челябинск

ICAO: USCC

METAR:
2018/09/23 11:00
USCC 231100Z 28003MPS 240V330 CAVOK 18/05 Q1019 R27/000060 NOSIG RMK QFE744
METAR:
2018/09/23 09:25
TAF USCC 230800Z 2309/2409 32003G08MPS CAVOK 
      TEMPO 2309/2312 26003G08MPS SCT030CB 
     FM231200 22003G08MPS 9999 SCT030 
      TEMPO 2312/2406 21002MPS 3100 BR FU SCT011